sensor_id;sensor_type;location;lat;lon;timestamp;P1;durP1;ratioP1;P2;durP2;ratioP2
43435;SDS011;36399;51.444;-2.018;2023-02-13T00:02:16;16.90;;;9.37;;
43435;SDS011;36399;51.444;-2.018;2023-02-13T00:04:42;19.93;;;9.53;;
43435;SDS011;36399;51.444;-2.018;2023-02-13T00:07:08;18.40;;;9.47;;
43435;SDS011;36399;51.444;-2.018;2023-02-13T00:09:38;20.97;;;10.73;;
43435;SDS011;36399;51.444;-2.018;2023-02-13T00:12:05;19.83;;;9.67;;
43435;SDS011;36399;51.444;-2.018;2023-02-13T00:14:35;20.57;;;9.83;;
43435;SDS011;36399;51.444;-2.018;2023-02-13T00:17:02;19.87;;;9.70;;
43435;SDS011;36399;51.444;-2.018;2023-02-13T00:19:29;20.33;;;9.73;;
43435;SDS011;36399;51.444;-2.018;2023-02-13T00:21:55;17.27;;;8.30;;
43435;SDS011;36399;51.444;-2.018;2023-02-13T00:24:21;23.03;;;10.73;;
43435;SDS011;36399;51.444;-2.018;2023-02-13T00:26:47;18.37;;;10.37;;
43435;SDS011;36399;51.444;-2.018;2023-02-13T00:29:13;22.73;;;10.50;;
43435;SDS011;36399;51.444;-2.018;2023-02-13T00:31:39;18.33;;;9.33;;
43435;SDS011;36399;51.444;-2.018;2023-02-13T00:34:05;21.90;;;9.97;;
43435;SDS011;36399;51.444;-2.018;2023-02-13T00:36:30;21.63;;;11.03;;
43435;SDS011;36399;51.444;-2.018;2023-02-13T00:38:56;19.53;;;10.53;;
43435;SDS011;36399;51.444;-2.018;2023-02-13T00:41:23;24.47;;;11.30;;
43435;SDS011;36399;51.444;-2.018;2023-02-13T00:43:49;23.73;;;11.80;;
43435;SDS011;36399;51.444;-2.018;2023-02-13T00:46:15;23.50;;;12.13;;
43435;SDS011;36399;51.444;-2.018;2023-02-13T00:48:42;24.10;;;11.03;;
43435;SDS011;36399;51.444;-2.018;2023-02-13T00:51:08;21.80;;;10.97;;
43435;SDS011;36399;51.444;-2.018;2023-02-13T00:53:35;22.97;;;11.23;;
43435;SDS011;36399;51.444;-2.018;2023-02-13T00:56:02;23.17;;;11.20;;
43435;SDS011;36399;51.444;-2.018;2023-02-13T00:58:28;23.67;;;13.00;;
43435;SDS011;36399;51.444;-2.018;2023-02-13T01:00:54;20.73;;;9.97;;
43435;SDS011;36399;51.444;-2.018;2023-02-13T01:03:21;24.80;;;12.83;;
43435;SDS011;36399;51.444;-2.018;2023-02-13T01:05:48;20.80;;;10.50;;
43435;SDS011;36399;51.444;-2.018;2023-02-13T01:08:14;22.47;;;11.10;;
43435;SDS011;36399;51.444;-2.018;2023-02-13T01:10:41;24.60;;;12.67;;
43435;SDS011;36399;51.444;-2.018;2023-02-13T01:13:08;22.97;;;13.50;;
43435;SDS011;36399;51.444;-2.018;2023-02-13T01:15:35;22.60;;;11.27;;
43435;SDS011;36399;51.444;-2.018;2023-02-13T01:18:01;26.37;;;13.20;;
43435;SDS011;36399;51.444;-2.018;2023-02-13T01:20:28;22.63;;;12.00;;
43435;SDS011;36399;51.444;-2.018;2023-02-13T01:22:55;25.77;;;12.83;;
43435;SDS011;36399;51.444;-2.018;2023-02-13T01:25:22;21.70;;;12.83;;
43435;SDS011;36399;51.444;-2.018;2023-02-13T01:27:49;26.60;;;13.90;;
43435;SDS011;36399;51.444;-2.018;2023-02-13T01:30:16;25.87;;;13.33;;
43435;SDS011;36399;51.444;-2.018;2023-02-13T01:32:44;32.30;;;12.97;;
43435;SDS011;36399;51.444;-2.018;2023-02-13T01:35:11;25.03;;;12.73;;
43435;SDS011;36399;51.444;-2.018;2023-02-13T01:37:38;27.43;;;13.57;;
43435;SDS011;36399;51.444;-2.018;2023-02-13T01:40:04;26.47;;;13.33;;
43435;SDS011;36399;51.444;-2.018;2023-02-13T01:42:32;28.70;;;14.03;;
43435;SDS011;36399;51.444;-2.018;2023-02-13T01:47:45;27.47;;;13.80;;
43435;SDS011;36399;51.444;-2.018;2023-02-13T01:50:19;31.53;;;14.70;;
43435;SDS011;36399;51.444;-2.018;2023-02-13T01:52:51;28.13;;;14.37;;
43435;SDS011;36399;51.444;-2.018;2023-02-13T01:55:43;31.33;;;15.20;;
43435;SDS011;36399;51.444;-2.018;2023-02-13T01:58:16;27.63;;;14.23;;
43435;SDS011;36399;51.444;-2.018;2023-02-13T02:00:45;29.30;;;15.43;;
43435;SDS011;36399;51.444;-2.018;2023-02-13T02:03:18;27.10;;;13.90;;
43435;SDS011;36399;51.444;-2.018;2023-02-13T02:05:52;28.07;;;13.97;;
43435;SDS011;36399;51.444;-2.018;2023-02-13T02:08:21;27.27;;;13.30;;
43435;SDS011;36399;51.444;-2.018;2023-02-13T02:10:48;27.63;;;14.00;;
43435;SDS011;36399;51.444;-2.018;2023-02-13T02:13:18;25.90;;;12.57;;
43435;SDS011;36399;51.444;-2.018;2023-02-13T02:15:46;23.87;;;13.07;;
43435;SDS011;36399;51.444;-2.018;2023-02-13T02:18:14;26.57;;;14.20;;
43435;SDS011;36399;51.444;-2.018;2023-02-13T02:39:31;35.73;;;17.57;;
43435;SDS011;36399;51.444;-2.018;2023-02-13T02:44:56;32.10;;;16.47;;
43435;SDS011;36399;51.444;-2.018;2023-02-13T02:50:34;33.37;;;17.90;;
43435;SDS011;36399;51.444;-2.018;2023-02-13T02:53:16;36.67;;;18.33;;
43435;SDS011;36399;51.444;-2.018;2023-02-13T02:58:44;32.13;;;16.77;;
43435;SDS011;36399;51.444;-2.018;2023-02-13T03:01:33;30.38;;;16.33;;
43435;SDS011;36399;51.444;-2.018;2023-02-13T03:07:10;28.87;;;16.43;;
43435;SDS011;36399;51.444;-2.018;2023-02-13T03:09:42;29.97;;;17.00;;
43435;SDS011;36399;51.444;-2.018;2023-02-13T03:15:46;27.90;;;14.23;;
43435;SDS011;36399;51.444;-2.018;2023-02-13T03:18:37;27.43;;;14.83;;
43435;SDS011;36399;51.444;-2.018;2023-02-13T03:24:24;26.27;;;14.30;;
43435;SDS011;36399;51.444;-2.018;2023-02-13T03:29:47;28.13;;;13.97;;
43435;SDS011;36399;51.444;-2.018;2023-02-13T03:33:22;32.43;;;12.97;;
43435;SDS011;36399;51.444;-2.018;2023-02-13T03:38:46;24.98;;;11.82;;
43435;SDS011;36399;51.444;-2.018;2023-02-13T03:41:22;27.20;;;14.35;;
43435;SDS011;36399;51.444;-2.018;2023-02-13T03:46:48;25.33;;;13.60;;
43435;SDS011;36399;51.444;-2.018;2023-02-13T03:49:51;23.60;;;13.13;;
43435;SDS011;36399;51.444;-2.018;2023-02-13T03:58:13;21.10;;;11.77;;
43435;SDS011;36399;51.444;-2.018;2023-02-13T04:01:03;29.70;;;13.80;;
43435;SDS011;36399;51.444;-2.018;2023-02-13T04:03:49;23.53;;;12.10;;
43435;SDS011;36399;51.444;-2.018;2023-02-13T04:06:22;21.83;;;12.27;;
43435;SDS011;36399;51.444;-2.018;2023-02-13T04:08:54;25.03;;;13.50;;
43435;SDS011;36399;51.444;-2.018;2023-02-13T04:12:07;26.13;;;13.23;;
43435;SDS011;36399;51.444;-2.018;2023-02-13T04:14:10;27.13;;;13.10;;
43435;SDS011;36399;51.444;-2.018;2023-02-13T04:16:44;23.37;;;11.60;;
43435;SDS011;36399;51.444;-2.018;2023-02-13T04:19:17;27.13;;;13.77;;
43435;SDS011;36399;51.444;-2.018;2023-02-13T04:21:47;33.83;;;13.07;;
43435;SDS011;36399;51.444;-2.018;2023-02-13T04:24:20;27.00;;;14.13;;
43435;SDS011;36399;51.444;-2.018;2023-02-13T04:26:46;30.13;;;12.90;;
43435;SDS011;36399;51.444;-2.018;2023-02-13T04:29:11;22.67;;;11.67;;
43435;SDS011;36399;51.444;-2.018;2023-02-13T04:31:37;21.80;;;12.67;;
43435;SDS011;36399;51.444;-2.018;2023-02-13T04:34:04;23.70;;;12.20;;
43435;SDS011;36399;51.444;-2.018;2023-02-13T04:36:32;30.47;;;15.97;;
43435;SDS011;36399;51.444;-2.018;2023-02-13T04:38:58;25.97;;;13.37;;
43435;SDS011;36399;51.444;-2.018;2023-02-13T04:41:24;27.37;;;14.80;;
43435;SDS011;36399;51.444;-2.018;2023-02-13T04:43:49;32.40;;;15.83;;
43435;SDS011;36399;51.444;-2.018;2023-02-13T04:46:17;30.37;;;15.30;;
43435;SDS011;36399;51.444;-2.018;2023-02-13T04:48:43;35.43;;;16.53;;
43435;SDS011;36399;51.444;-2.018;2023-02-13T04:51:09;33.63;;;16.10;;
43435;SDS011;36399;51.444;-2.018;2023-02-13T04:53:35;28.67;;;14.37;;
43435;SDS011;36399;51.444;-2.018;2023-02-13T04:56:01;21.93;;;14.00;;
43435;SDS011;36399;51.444;-2.018;2023-02-13T04:58:27;25.23;;;13.47;;
43435;SDS011;36399;51.444;-2.018;2023-02-13T05:00:53;28.13;;;14.83;;
43435;SDS011;36399;51.444;-2.018;2023-02-13T05:03:19;29.93;;;15.90;;
43435;SDS011;36399;51.444;-2.018;2023-02-13T05:05:45;28.20;;;15.03;;
43435;SDS011;36399;51.444;-2.018;2023-02-13T05:08:11;28.00;;;15.23;;
43435;SDS011;36399;51.444;-2.018;2023-02-13T05:10:37;29.17;;;14.87;;
43435;SDS011;36399;51.444;-2.018;2023-02-13T05:13:03;30.80;;;16.13;;
43435;SDS011;36399;51.444;-2.018;2023-02-13T05:15:28;32.97;;;17.43;;
43435;SDS011;36399;51.444;-2.018;2023-02-13T05:17:54;30.47;;;15.10;;
43435;SDS011;36399;51.444;-2.018;2023-02-13T05:20:20;30.73;;;16.80;;
43435;SDS011;36399;51.444;-2.018;2023-02-13T05:22:47;33.10;;;17.47;;
43435;SDS011;36399;51.444;-2.018;2023-02-13T05:25:34;34.20;;;17.30;;
43435;SDS011;36399;51.444;-2.018;2023-02-13T05:28:01;30.03;;;16.03;;
43435;SDS011;36399;51.444;-2.018;2023-02-13T05:30:27;33.97;;;18.67;;
43435;SDS011;36399;51.444;-2.018;2023-02-13T05:32:53;30.17;;;15.63;;
43435;SDS011;36399;51.444;-2.018;2023-02-13T05:35:20;33.17;;;16.27;;
43435;SDS011;36399;51.444;-2.018;2023-02-13T05:37:46;31.53;;;16.37;;
43435;SDS011;36399;51.444;-2.018;2023-02-13T05:40:13;32.70;;;16.17;;
43435;SDS011;36399;51.444;-2.018;2023-02-13T05:42:40;34.70;;;16.87;;
43435;SDS011;36399;51.444;-2.018;2023-02-13T05:45:07;30.33;;;14.77;;
43435;SDS011;36399;51.444;-2.018;2023-02-13T05:47:34;35.83;;;17.67;;
43435;SDS011;36399;51.444;-2.018;2023-02-13T05:50:00;40.97;;;19.37;;
43435;SDS011;36399;51.444;-2.018;2023-02-13T05:52:26;34.80;;;17.93;;
43435;SDS011;36399;51.444;-2.018;2023-02-13T05:54:52;34.30;;;17.30;;
43435;SDS011;36399;51.444;-2.018;2023-02-13T05:57:18;34.70;;;17.53;;
43435;SDS011;36399;51.444;-2.018;2023-02-13T05:59:44;30.83;;;16.50;;
43435;SDS011;36399;51.444;-2.018;2023-02-13T06:02:10;36.27;;;17.37;;
43435;SDS011;36399;51.444;-2.018;2023-02-13T06:04:36;31.50;;;16.70;;
43435;SDS011;36399;51.444;-2.018;2023-02-13T06:07:02;33.03;;;16.40;;
43435;SDS011;36399;51.444;-2.018;2023-02-13T06:09:28;33.53;;;17.77;;
43435;SDS011;36399;51.444;-2.018;2023-02-13T06:11:54;36.27;;;17.10;;
43435;SDS011;36399;51.444;-2.018;2023-02-13T06:14:20;33.37;;;18.40;;
43435;SDS011;36399;51.444;-2.018;2023-02-13T06:16:46;35.63;;;18.67;;
43435;SDS011;36399;51.444;-2.018;2023-02-13T06:19:12;36.17;;;18.80;;
43435;SDS011;36399;51.444;-2.018;2023-02-13T06:21:38;38.30;;;20.37;;
43435;SDS011;36399;51.444;-2.018;2023-02-13T06:24:04;42.73;;;23.33;;
43435;SDS011;36399;51.444;-2.018;2023-02-13T06:26:30;34.50;;;18.80;;
43435;SDS011;36399;51.444;-2.018;2023-02-13T06:28:56;40.07;;;18.73;;
43435;SDS011;36399;51.444;-2.018;2023-02-13T06:31:22;35.90;;;19.77;;
43435;SDS011;36399;51.444;-2.018;2023-02-13T06:33:48;38.47;;;18.37;;
43435;SDS011;36399;51.444;-2.018;2023-02-13T06:36:14;37.33;;;18.60;;
43435;SDS011;36399;51.444;-2.018;2023-02-13T06:38:39;39.43;;;20.30;;
43435;SDS011;36399;51.444;-2.018;2023-02-13T06:41:05;38.43;;;19.30;;
43435;SDS011;36399;51.444;-2.018;2023-02-13T06:43:31;34.00;;;20.07;;
43435;SDS011;36399;51.444;-2.018;2023-02-13T06:45:57;40.67;;;19.87;;
43435;SDS011;36399;51.444;-2.018;2023-02-13T06:48:24;37.43;;;19.03;;
43435;SDS011;36399;51.444;-2.018;2023-02-13T06:50:50;36.17;;;18.37;;
43435;SDS011;36399;51.444;-2.018;2023-02-13T06:53:19;39.53;;;18.80;;
43435;SDS011;36399;51.444;-2.018;2023-02-13T06:55:53;37.67;;;19.30;;
43435;SDS011;36399;51.444;-2.018;2023-02-13T06:58:20;40.83;;;20.20;;
43435;SDS011;36399;51.444;-2.018;2023-02-13T07:00:48;43.43;;;20.63;;
43435;SDS011;36399;51.444;-2.018;2023-02-13T07:03:15;35.73;;;19.70;;
43435;SDS011;36399;51.444;-2.018;2023-02-13T07:05:41;39.93;;;18.83;;
43435;SDS011;36399;51.444;-2.018;2023-02-13T07:08:11;42.73;;;20.87;;
43435;SDS011;36399;51.444;-2.018;2023-02-13T07:10:40;39.30;;;18.63;;
43435;SDS011;36399;51.444;-2.018;2023-02-13T07:13:06;37.47;;;19.53;;
43435;SDS011;36399;51.444;-2.018;2023-02-13T07:15:32;36.77;;;18.17;;
43435;SDS011;36399;51.444;-2.018;2023-02-13T07:17:59;41.23;;;19.27;;
43435;SDS011;36399;51.444;-2.018;2023-02-13T07:20:26;33.70;;;16.30;;
43435;SDS011;36399;51.444;-2.018;2023-02-13T07:22:52;29.00;;;15.37;;
43435;SDS011;36399;51.444;-2.018;2023-02-13T07:25:26;28.73;;;15.00;;
43435;SDS011;36399;51.444;-2.018;2023-02-13T07:30:46;32.47;;;16.20;;
43435;SDS011;36399;51.444;-2.018;2023-02-13T07:33:12;28.17;;;13.63;;
43435;SDS011;36399;51.444;-2.018;2023-02-13T07:35:38;30.73;;;14.57;;
43435;SDS011;36399;51.444;-2.018;2023-02-13T07:38:06;25.50;;;14.40;;
43435;SDS011;36399;51.444;-2.018;2023-02-13T07:40:32;34.00;;;14.90;;
43435;SDS011;36399;51.444;-2.018;2023-02-13T07:42:59;32.87;;;15.60;;
43435;SDS011;36399;51.444;-2.018;2023-02-13T07:45:26;25.43;;;13.63;;
43435;SDS011;36399;51.444;-2.018;2023-02-13T07:47:53;31.07;;;15.53;;
43435;SDS011;36399;51.444;-2.018;2023-02-13T07:50:20;30.13;;;14.60;;
43435;SDS011;36399;51.444;-2.018;2023-02-13T07:52:56;34.83;;;15.00;;
43435;SDS011;36399;51.444;-2.018;2023-02-13T07:55:23;26.90;;;13.40;;
43435;SDS011;36399;51.444;-2.018;2023-02-13T07:57:49;27.40;;;13.00;;
43435;SDS011;36399;51.444;-2.018;2023-02-13T08:00:16;27.17;;;14.67;;
43435;SDS011;36399;51.444;-2.018;2023-02-13T08:02:43;31.27;;;14.47;;
43435;SDS011;36399;51.444;-2.018;2023-02-13T08:05:10;28.13;;;14.20;;
43435;SDS011;36399;51.444;-2.018;2023-02-13T08:07:36;29.07;;;14.20;;
43435;SDS011;36399;51.444;-2.018;2023-02-13T08:10:03;32.23;;;14.17;;
43435;SDS011;36399;51.444;-2.018;2023-02-13T08:12:50;29.33;;;13.53;;
43435;SDS011;36399;51.444;-2.018;2023-02-13T08:15:17;31.37;;;14.63;;
43435;SDS011;36399;51.444;-2.018;2023-02-13T08:17:43;26.37;;;13.73;;
43435;SDS011;36399;51.444;-2.018;2023-02-13T08:20:09;34.77;;;14.03;;
43435;SDS011;36399;51.444;-2.018;2023-02-13T08:22:35;24.47;;;13.80;;
43435;SDS011;36399;51.444;-2.018;2023-02-13T08:25:03;32.27;;;16.03;;
43435;SDS011;36399;51.444;-2.018;2023-02-13T08:27:29;27.87;;;14.70;;
43435;SDS011;36399;51.444;-2.018;2023-02-13T08:29:56;30.93;;;15.63;;
43435;SDS011;36399;51.444;-2.018;2023-02-13T08:32:22;33.97;;;15.23;;
43435;SDS011;36399;51.444;-2.018;2023-02-13T08:34:49;34.43;;;15.43;;
43435;SDS011;36399;51.444;-2.018;2023-02-13T08:37:16;30.27;;;15.43;;
43435;SDS011;36399;51.444;-2.018;2023-02-13T08:39:42;31.90;;;14.37;;
43435;SDS011;36399;51.444;-2.018;2023-02-13T08:42:09;29.37;;;15.00;;
43435;SDS011;36399;51.444;-2.018;2023-02-13T08:44:35;32.93;;;15.60;;
43435;SDS011;36399;51.444;-2.018;2023-02-13T08:47:02;32.80;;;17.03;;
43435;SDS011;36399;51.444;-2.018;2023-02-13T08:49:32;30.30;;;15.43;;
43435;SDS011;36399;51.444;-2.018;2023-02-13T08:54:35;30.60;;;14.33;;
43435;SDS011;36399;51.444;-2.018;2023-02-13T08:57:02;27.77;;;14.10;;
43435;SDS011;36399;51.444;-2.018;2023-02-13T08:59:28;27.40;;;11.97;;
43435;SDS011;36399;51.444;-2.018;2023-02-13T09:01:55;33.87;;;15.33;;
43435;SDS011;36399;51.444;-2.018;2023-02-13T09:04:22;30.53;;;15.03;;
43435;SDS011;36399;51.444;-2.018;2023-02-13T09:06:48;28.60;;;14.73;;
43435;SDS011;36399;51.444;-2.018;2023-02-13T09:09:14;30.53;;;14.47;;
43435;SDS011;36399;51.444;-2.018;2023-02-13T09:11:40;29.40;;;15.07;;
43435;SDS011;36399;51.444;-2.018;2023-02-13T09:14:06;30.83;;;15.17;;
43435;SDS011;36399;51.444;-2.018;2023-02-13T09:19:07;25.57;;;14.27;;
43435;SDS011;36399;51.444;-2.018;2023-02-13T09:21:38;30.27;;;14.37;;
43435;SDS011;36399;51.444;-2.018;2023-02-13T09:24:08;25.80;;;13.20;;
43435;SDS011;36399;51.444;-2.018;2023-02-13T09:29:04;30.73;;;14.90;;
43435;SDS011;36399;51.444;-2.018;2023-02-13T09:31:29;28.20;;;14.37;;
43435;SDS011;36399;51.444;-2.018;2023-02-13T09:33:55;31.97;;;14.70;;
43435;SDS011;36399;51.444;-2.018;2023-02-13T09:36:22;30.53;;;13.77;;
43435;SDS011;36399;51.444;-2.018;2023-02-13T09:38:55;30.83;;;13.97;;
43435;SDS011;36399;51.444;-2.018;2023-02-13T09:41:25;28.10;;;13.82;;
43435;SDS011;36399;51.444;-2.018;2023-02-13T09:44:03;30.17;;;14.20;;
43435;SDS011;36399;51.444;-2.018;2023-02-13T09:46:35;30.50;;;13.53;;
43435;SDS011;36399;51.444;-2.018;2023-02-13T09:49:11;30.67;;;14.90;;
43435;SDS011;36399;51.444;-2.018;2023-02-13T09:51:42;27.83;;;14.37;;
43435;SDS011;36399;51.444;-2.018;2023-02-13T09:54:12;31.00;;;15.40;;
43435;SDS011;36399;51.444;-2.018;2023-02-13T10:07:35;30.63;;;14.37;;
43435;SDS011;36399;51.444;-2.018;2023-02-13T10:18:04;31.27;;;14.63;;
43435;SDS011;36399;51.444;-2.018;2023-02-13T10:23:11;30.63;;;15.57;;
43435;SDS011;36399;51.444;-2.018;2023-02-13T10:25:47;26.97;;;13.97;;
43435;SDS011;36399;51.444;-2.018;2023-02-13T10:28:31;27.40;;;14.00;;
43435;SDS011;36399;51.444;-2.018;2023-02-13T10:31:09;28.77;;;15.53;;
43435;SDS011;36399;51.444;-2.018;2023-02-13T10:33:43;35.73;;;16.83;;
43435;SDS011;36399;51.444;-2.018;2023-02-13T10:36:20;34.07;;;15.07;;
43435;SDS011;36399;51.444;-2.018;2023-02-13T10:50:21;27.47;;;14.67;;
43435;SDS011;36399;51.444;-2.018;2023-02-13T10:58:35;29.23;;;14.23;;
43435;SDS011;36399;51.444;-2.018;2023-02-13T11:03:38;25.27;;;14.10;;
43435;SDS011;36399;51.444;-2.018;2023-02-13T11:06:04;27.53;;;14.80;;
43435;SDS011;36399;51.444;-2.018;2023-02-13T11:08:41;21.60;;;11.82;;
43435;SDS011;36399;51.444;-2.018;2023-02-13T11:11:31;29.73;;;15.73;;
43435;SDS011;36399;51.444;-2.018;2023-02-13T11:16:55;28.17;;;14.30;;
43435;SDS011;36399;51.444;-2.018;2023-02-13T11:19:34;29.47;;;15.20;;
43435;SDS011;36399;51.444;-2.018;2023-02-13T11:22:08;29.92;;;15.50;;
43435;SDS011;36399;51.444;-2.018;2023-02-13T11:24:38;23.40;;;13.05;;
43435;SDS011;36399;51.444;-2.018;2023-02-13T11:27:06;27.17;;;14.23;;
43435;SDS011;36399;51.444;-2.018;2023-02-13T11:29:52;29.03;;;14.60;;
43435;SDS011;36399;51.444;-2.018;2023-02-13T11:32:30;27.70;;;13.77;;
43435;SDS011;36399;51.444;-2.018;2023-02-13T11:34:59;23.60;;;13.10;;
43435;SDS011;36399;51.444;-2.018;2023-02-13T11:38:06;28.42;;;14.13;;
43435;SDS011;36399;51.444;-2.018;2023-02-13T11:40:39;24.40;;;13.27;;
43435;SDS011;36399;51.444;-2.018;2023-02-13T11:43:19;25.93;;;13.67;;
43435;SDS011;36399;51.444;-2.018;2023-02-13T11:48:37;26.67;;;14.70;;
43435;SDS011;36399;51.444;-2.018;2023-02-13T11:51:03;26.70;;;13.93;;
43435;SDS011;36399;51.444;-2.018;2023-02-13T11:53:30;25.20;;;13.30;;
43435;SDS011;36399;51.444;-2.018;2023-02-13T11:56:03;26.40;;;14.50;;
43435;SDS011;36399;51.444;-2.018;2023-02-13T11:58:31;24.90;;;13.77;;
43435;SDS011;36399;51.444;-2.018;2023-02-13T12:06:25;22.27;;;13.97;;
43435;SDS011;36399;51.444;-2.018;2023-02-13T12:08:51;24.53;;;13.67;;
43435;SDS011;36399;51.444;-2.018;2023-02-13T12:14:35;27.83;;;14.50;;
43435;SDS011;36399;51.444;-2.018;2023-02-13T12:17:05;23.40;;;13.60;;
43435;SDS011;36399;51.444;-2.018;2023-02-13T12:19:40;22.10;;;11.80;;
43435;SDS011;36399;51.444;-2.018;2023-02-13T12:25:13;24.43;;;13.90;;
43435;SDS011;36399;51.444;-2.018;2023-02-13T12:39:32;16.92;;;10.80;;
43435;SDS011;36399;51.444;-2.018;2023-02-13T12:47:28;27.37;;;14.17;;
43435;SDS011;36399;51.444;-2.018;2023-02-13T12:58:31;23.48;;;14.50;;
43435;SDS011;36399;51.444;-2.018;2023-02-13T13:01:19;24.27;;;13.63;;
43435;SDS011;36399;51.444;-2.018;2023-02-13T13:13:00;27.63;;;15.90;;
43435;SDS011;36399;51.444;-2.018;2023-02-13T13:15:59;25.77;;;16.33;;
43435;SDS011;36399;51.444;-2.018;2023-02-13T13:21:34;23.27;;;14.40;;
43435;SDS011;36399;51.444;-2.018;2023-02-13T13:27:25;23.60;;;15.10;;
43435;SDS011;36399;51.444;-2.018;2023-02-13T13:29:55;26.60;;;14.67;;
43435;SDS011;36399;51.444;-2.018;2023-02-13T13:32:23;24.73;;;14.13;;
43435;SDS011;36399;51.444;-2.018;2023-02-13T13:34:51;23.00;;;14.17;;
43435;SDS011;36399;51.444;-2.018;2023-02-13T13:50:59;22.37;;;13.53;;
43435;SDS011;36399;51.444;-2.018;2023-02-13T13:53:26;27.93;;;15.60;;
43435;SDS011;36399;51.444;-2.018;2023-02-13T13:58:21;24.07;;;14.53;;
43435;SDS011;36399;51.444;-2.018;2023-02-13T14:06:18;26.03;;;14.53;;
43435;SDS011;36399;51.444;-2.018;2023-02-13T14:11:30;24.10;;;13.73;;
43435;SDS011;36399;51.444;-2.018;2023-02-13T14:13:56;21.25;;;12.43;;
43435;SDS011;36399;51.444;-2.018;2023-02-13T14:16:40;20.83;;;12.80;;
43435;SDS011;36399;51.444;-2.018;2023-02-13T14:24:58;23.83;;;13.07;;
43435;SDS011;36399;51.444;-2.018;2023-02-13T14:27:29;23.70;;;14.52;;
43435;SDS011;36399;51.444;-2.018;2023-02-13T14:29:57;27.33;;;15.07;;
43435;SDS011;36399;51.444;-2.018;2023-02-13T14:32:34;24.83;;;13.53;;
43435;SDS011;36399;51.444;-2.018;2023-02-13T14:35:21;22.37;;;13.40;;
43435;SDS011;36399;51.444;-2.018;2023-02-13T14:37:53;24.50;;;14.40;;
43435;SDS011;36399;51.444;-2.018;2023-02-13T14:40:29;21.50;;;12.90;;
43435;SDS011;36399;51.444;-2.018;2023-02-13T14:46:11;25.03;;;15.10;;
43435;SDS011;36399;51.444;-2.018;2023-02-13T14:51:38;24.73;;;13.73;;
43435;SDS011;36399;51.444;-2.018;2023-02-13T14:54:14;22.93;;;14.20;;
43435;SDS011;36399;51.444;-2.018;2023-02-13T14:56:43;24.93;;;14.97;;
43435;SDS011;36399;51.444;-2.018;2023-02-13T14:59:15;26.73;;;14.97;;
43435;SDS011;36399;51.444;-2.018;2023-02-13T15:04:17;23.80;;;12.87;;
43435;SDS011;36399;51.444;-2.018;2023-02-13T15:06:52;23.73;;;12.87;;
43435;SDS011;36399;51.444;-2.018;2023-02-13T15:09:26;22.83;;;13.33;;
43435;SDS011;36399;51.444;-2.018;2023-02-13T15:12:00;26.33;;;13.27;;
43435;SDS011;36399;51.444;-2.018;2023-02-13T15:14:30;19.63;;;11.60;;
43435;SDS011;36399;51.444;-2.018;2023-02-13T15:19:30;21.43;;;13.33;;
43435;SDS011;36399;51.444;-2.018;2023-02-13T15:21:59;23.93;;;12.10;;
43435;SDS011;36399;51.444;-2.018;2023-02-13T15:24:46;23.20;;;13.70;;
43435;SDS011;36399;51.444;-2.018;2023-02-13T15:27:16;25.17;;;12.80;;
43435;SDS011;36399;51.444;-2.018;2023-02-13T15:30:02;21.57;;;11.57;;
43435;SDS011;36399;51.444;-2.018;2023-02-13T15:32:42;19.37;;;10.63;;
43435;SDS011;36399;51.444;-2.018;2023-02-13T15:35:23;20.40;;;11.10;;
43435;SDS011;36399;51.444;-2.018;2023-02-13T15:37:57;19.57;;;10.67;;
43435;SDS011;36399;51.444;-2.018;2023-02-13T15:40:31;18.83;;;11.50;;
43435;SDS011;36399;51.444;-2.018;2023-02-13T15:43:06;18.47;;;9.83;;
43435;SDS011;36399;51.444;-2.018;2023-02-13T15:45:47;18.90;;;10.47;;
43435;SDS011;36399;51.444;-2.018;2023-02-13T15:48:16;18.30;;;9.93;;
43435;SDS011;36399;51.444;-2.018;2023-02-13T15:50:42;18.07;;;9.97;;
43435;SDS011;36399;51.444;-2.018;2023-02-13T15:53:11;18.80;;;10.70;;
43435;SDS011;36399;51.444;-2.018;2023-02-13T15:55:39;21.43;;;11.03;;
43435;SDS011;36399;51.444;-2.018;2023-02-13T15:58:08;18.10;;;10.20;;
43435;SDS011;36399;51.444;-2.018;2023-02-13T16:00:41;20.10;;;10.93;;
43435;SDS011;36399;51.444;-2.018;2023-02-13T16:03:12;21.27;;;11.97;;
43435;SDS011;36399;51.444;-2.018;2023-02-13T16:05:41;20.60;;;11.40;;
43435;SDS011;36399;51.444;-2.018;2023-02-13T16:08:44;23.70;;;11.23;;
43435;SDS011;36399;51.444;-2.018;2023-02-13T16:16:57;17.40;;;11.20;;
43435;SDS011;36399;51.444;-2.018;2023-02-13T16:22:37;22.70;;;11.33;;
43435;SDS011;36399;51.444;-2.018;2023-02-13T16:27:54;20.87;;;11.87;;
43435;SDS011;36399;51.444;-2.018;2023-02-13T16:30:28;18.75;;;11.43;;
43435;SDS011;36399;51.444;-2.018;2023-02-13T16:40:53;21.50;;;10.80;;
43435;SDS011;36399;51.444;-2.018;2023-02-13T16:48:36;20.50;;;10.97;;
43435;SDS011;36399;51.444;-2.018;2023-02-13T16:51:03;21.87;;;11.67;;
43435;SDS011;36399;51.444;-2.018;2023-02-13T16:53:29;22.80;;;11.23;;
43435;SDS011;36399;51.444;-2.018;2023-02-13T16:55:55;19.10;;;10.50;;
43435;SDS011;36399;51.444;-2.018;2023-02-13T16:58:30;20.07;;;10.77;;
43435;SDS011;36399;51.444;-2.018;2023-02-13T17:00:56;23.27;;;12.10;;
43435;SDS011;36399;51.444;-2.018;2023-02-13T17:03:22;21.53;;;10.97;;
43435;SDS011;36399;51.444;-2.018;2023-02-13T17:05:48;25.57;;;12.63;;
43435;SDS011;36399;51.444;-2.018;2023-02-13T17:08:14;23.93;;;12.53;;
43435;SDS011;36399;51.444;-2.018;2023-02-13T17:10:40;23.70;;;11.63;;
43435;SDS011;36399;51.444;-2.018;2023-02-13T17:13:14;23.93;;;12.20;;
43435;SDS011;36399;51.444;-2.018;2023-02-13T17:15:44;24.10;;;12.43;;
43435;SDS011;36399;51.444;-2.018;2023-02-13T17:18:12;27.10;;;13.73;;
43435;SDS011;36399;51.444;-2.018;2023-02-13T17:20:39;24.77;;;12.80;;
43435;SDS011;36399;51.444;-2.018;2023-02-13T17:23:11;26.37;;;12.37;;
43435;SDS011;36399;51.444;-2.018;2023-02-13T17:25:42;27.77;;;14.07;;
43435;SDS011;36399;51.444;-2.018;2023-02-13T17:28:13;25.17;;;13.03;;
43435;SDS011;36399;51.444;-2.018;2023-02-13T17:30:41;27.33;;;14.00;;
43435;SDS011;36399;51.444;-2.018;2023-02-13T17:33:24;24.37;;;13.57;;
43435;SDS011;36399;51.444;-2.018;2023-02-13T17:35:54;25.97;;;14.30;;
43435;SDS011;36399;51.444;-2.018;2023-02-13T17:38:21;25.57;;;13.37;;
43435;SDS011;36399;51.444;-2.018;2023-02-13T17:40:47;27.20;;;12.70;;
43435;SDS011;36399;51.444;-2.018;2023-02-13T17:43:15;29.50;;;15.23;;
43435;SDS011;36399;51.444;-2.018;2023-02-13T17:45:42;31.93;;;15.80;;
43435;SDS011;36399;51.444;-2.018;2023-02-13T17:48:08;34.73;;;16.47;;
43435;SDS011;36399;51.444;-2.018;2023-02-13T17:50:34;34.93;;;16.20;;
43435;SDS011;36399;51.444;-2.018;2023-02-13T17:53:01;30.13;;;16.20;;
43435;SDS011;36399;51.444;-2.018;2023-02-13T17:55:30;37.13;;;18.00;;
43435;SDS011;36399;51.444;-2.018;2023-02-13T17:57:57;30.77;;;16.40;;
43435;SDS011;36399;51.444;-2.018;2023-02-13T18:00:25;32.83;;;16.83;;
43435;SDS011;36399;51.444;-2.018;2023-02-13T18:02:53;33.47;;;16.23;;
43435;SDS011;36399;51.444;-2.018;2023-02-13T18:05:20;28.70;;;16.27;;
43435;SDS011;36399;51.444;-2.018;2023-02-13T18:07:47;35.40;;;17.57;;
43435;SDS011;36399;51.444;-2.018;2023-02-13T18:10:14;36.27;;;17.17;;
43435;SDS011;36399;51.444;-2.018;2023-02-13T18:12:45;31.80;;;18.37;;
43435;SDS011;36399;51.444;-2.018;2023-02-13T18:15:12;39.37;;;18.50;;
43435;SDS011;36399;51.444;-2.018;2023-02-13T18:17:39;32.13;;;16.50;;